Terminal Aerodrome Forecast
Issued by NWS Quad Cities IA IL

Home | Current Version | Previous Version | Text Only | Print | Product List | Glossary On
Versions: 1 2 3 4 5 6 7 8 9 10 11 12 13 14 15
000
FTUS43 KDVN 160800 AAA
TAFMLI
TAF AMD
KMLI 160805Z 1608/1706 00000KT 3SM BR SKC
      TEMPO 1609/1612 1 1/2SM BR
     FM161330 VRB03KT P6SM SKC=

USA.gov is the U.S. government's official web portal to all federal, state and local government web resources and services.